Charleston Four Corners, New York
Current Conditions -  °F | °C
As of 9:55 AM on Monday 24 Nov 2014 (Local Time) from KNY0 Reporting Station
Overcast Overcast  
Wind Chill: 54°   Ceiling: 6500
Heat Index: 54°   Visibility: 10mi
Dew Point: 53°   Wind: 5mph
Humidity: 97%   Direction: 130°SE
Pressure: 29.57"   Gusts: NA
Location:  42.8384°N, 74.4592°W
Report Text: KNY0 241455Z AUTO 13004KT 10SM SCT035 OVC065 12/12 A2957 RMK AO2 P0001 60001 T01210116
Loading
Personal Weather Stations






























Interactive Weather Map New forecast layout! Learn more

10-Day Weather Forecast

Advertisements
Track Severe Weather on mobile